Weather at Yuzhno-Sakhalinsk Airport

Public forecast

Using degrees Celsius for public forecast. Weather courtesy of forecast.io.

Current aviation weather report (METAR) for Yuzhno-Sakhalinsk Airport

Retrieved 2021/07/23 23:00 UTC (3 minutes ago):

UHSS 232300Z 18002MPS 9999 BKN022CB 24/22 Q1011 R19/70D NOSIG RMK MT OBSC QFE757/1009

Aviation forecast (TAF) for Yuzhno-Sakhalinsk Airport

Retrieved 2021/07/23 21:21 UTC (2 hours ago):

TAF UHSS 231950Z 2321/2503 18003MPS 9999 BKN030CB